Huvudsida
METAR-TAF:

METAR-TAF

Flygplatser :

Yüksekova, Turkiet

latitud: 37-33-06N, longitud: 44-14-01E, höjd: 1950 m

Aktuellt väderrapport

Denna rapport gjordes för 24 minuter sedan, klockan 10:50 UTC
Vind 4 kt från väst, varierande mellan syd/sydväst och nord/nordväst
Temperatur 24°C
Fuktighet 36%
Tryck 1018 hPa
Sikt 10 km eller mer
Få moln på en höjd av 4000 ft
Spridda moln på en höjd av 7000 ft

METAR: LTCW 141050Z 28004KT 200V340 9999 FEW040 SCT070 24/08 Q1018

Tid: 14:14 (11:14 UTC)

Väderprognos

Denna rapport gjordes för 3 timmar och 34 minuter sedan, klockan 07:40 UTC
Prognos gäller från 14 kl. 09 UTC till 14 kl. 18 UTC
Vind 9 kt från nord/nordost
Sikt 10 km eller mer
Få moln på en höjd av 4000 ft

TAF: LTCW 140740Z 1409/1418 02009KT 9999 FEW040

Aktuella väderrapporter och prognoser från 4000 flygplatser (METAR- och TAF-rapporter).

De tillgängliga stationerna syns som gula och röda prickar på kartan.

För musen över prickarna för att se namnen på stationerna.

Klicka sedan för att få väderrapporter och prognoser.

För att ändra kartan: Klicka på de gröna knapparna med ett svart kors på för att zooma in; den gröna knappen med ett streck på för att zooma ut; eller på de gröna pilarna för angränsande kartor.


METAR-TAF: